Terminal Aerodrome Forecast
Issued by NWS

Home | Current Version | Previous Version | Text Only | Print | Product List | Glossary On
Versions: 1 2 3 4 5 6 7 8 9 10 11 12 13 14 15 16 17 18 19 20 21 22 23 24 25 26 27 28 29 30
656
FTUS42 KCAE 212035 AAB
TAFCUB
TAF AMD
KCUB 212035Z 2121/2218 20006KT P6SM VCTS SCT050CB
      TEMPO 2121/2122 27022KT 3SM TSRA BKN035CB
     FM212300 20003KT P6SM SCT100
     FM221500 23006KT P6SM SCT035=

USA.gov is the U.S. government's official web portal to all federal, state and local government web resources and services.